Skip Navigation Links Skip Navigation Links

Current Weather

Burlington Muni, Burlington, Wis.

For information only: do not use for flight planning or navigation.
Latest weather
Observation time Wednesday, February 20, 2019 11:35 AM CST
Local time Wednesday, February 20, 2019 11:56 AM CST
Flight conditions Instrument Meteorological Conditions
Winds
Wind direction East-Southeast (110°)
Wind speed 12 mph
Wind gusting to 18 mph
Visibility 2.5 mi.
Present weather mist
Sky condition
Ceiling 1,000 ft. overcast
Cloud layer overcast 1,000 ft.
Temperature 30°F
Dewpoint 29°F
Altimeter 29.75 in.Hg
Precipitation
Precipitation last hour 0.01 in.
Derived measurements
Relative humidity 96%
Wind chill 21°F
Density altitude -899 ft.
Remarks
Fully automated report.
Automated weather observing station with precipitation discriminator.
METAR KBUU 201735Z AUTO 11010G16KT 2 1/2SM BR OVC010 M01/M01 A2975 RMK AO2 P0001 T10101015

Settings

Location code

InnerDrive.Weather 4.0.6770.0 Release CLR 4.0.30319.42000
Copyright ©2018 Inner Drive Technology. All rights reserved. Portions Copyright ©1986-2018 David Braverman.

Find weather

Site navigation


Skip Navigation Links

Place info

Page info

PayPal - The safer, easier way to pay online!

Return home.

Copyright ©2019 Inner Drive Technology. Purveyors of fine, hand-crafted computer software. Page printed 2019-02-20T17:56:31 UTC.